Time;durP1;ratioP1;P1;durP2;ratioP2;P2;SDS_P1;SDS_P2;PMS_P1;PMS_P2;Temp;Humidity;BMP_temperature;BMP_pressure;BME280_temperature;BME280_humidity;BME280_pressure;Samples;Min_cycle;Max_cycle;Signal;HPM_P1;HPM_P2
2023/09/09 00:01:09;;;;;;;6.22;5.72;;;;;;;;;;5034194;28;20700;-77
2023/09/09 00:03:36;;;;;;;8.30;5.80;;;;;;;;;;5045165;28;20306;-78
2023/09/09 00:06:13;;;;;;;6.20;5.68;;;;;;;;;;5064302;28;20242;-77
2023/09/09 00:08:40;;;;;;;6.78;6.07;;;;;;;;;;5054853;28;20699;-77
2023/09/09 00:11:05;;;;;;;5.60;5.20;;;;;;;;;;5029501;28;20226;-77
2023/09/09 00:13:38;;;;;;;9.00;5.80;;;;;;;;;;5028905;28;20687;-78
2023/09/09 00:16:04;;;;;;;5.93;5.47;;;;;;;;;;5019002;28;20218;-77
2023/09/09 00:18:33;;;;;;;6.40;5.90;;;;;;;;;;5024422;28;20250;-77
2023/09/09 00:21:01;;;;;;;5.65;5.13;;;;;;;;;;5028963;28;20584;-78
2023/09/09 00:23:33;;;;;;;5.57;5.18;;;;;;;;;;5070245;28;20219;-78
2023/09/09 00:26:01;;;;;;;5.40;4.90;;;;;;;;;;5045790;28;20217;-78
2023/09/09 00:28:36;;;;;;;6.05;5.45;;;;;;;;;;5045243;28;20229;-77
2023/09/09 00:31:04;;;;;;;6.10;5.60;;;;;;;;;;5022270;28;20310;-77
2023/09/09 00:33:32;;;;;;;8.23;5.28;;;;;;;;;;5024345;28;20227;-78
2023/09/09 00:36:02;;;;;;;6.28;5.78;;;;;;;;;;5039775;28;20219;-78
2023/09/09 00:38:27;;;;;;;8.75;5.70;;;;;;;;;;5007750;28;20242;-78
2023/09/09 00:41:18;;;;;;;5.88;5.32;;;;;;;;;;5049276;28;20215;-78
2023/09/09 00:43:46;;;;;;;6.25;5.65;;;;;;;;;;5063837;28;20222;-78
2023/09/09 00:46:13;;;;;;;7.60;6.05;;;;;;;;;;5034343;28;20280;-78
2023/09/09 00:48:39;;;;;;;5.85;5.30;;;;;;;;;;5041350;28;20226;-77
2023/09/09 00:51:11;;;;;;;5.80;5.40;;;;;;;;;;5045260;28;20218;-78
2023/09/09 00:53:48;;;;;;;5.53;5.15;;;;;;;;;;5023001;28;20246;-78
2023/09/09 00:56:14;;;;;;;5.88;5.47;;;;;;;;;;5034109;28;20211;-78
2023/09/09 00:58:42;;;;;;;7.38;6.68;;;;;;;;;;5053014;28;20214;-78
2023/09/09 01:01:12;;;;;;;6.50;5.90;;;;;;;;;;5049726;28;20284;-77
2023/09/09 01:03:42;;;;;;;6.07;5.65;;;;;;;;;;5033950;28;20234;-79
2023/09/09 01:06:10;;;;;;;6.53;5.38;;;;;;;;;;5031765;28;20519;-77
2023/09/09 01:08:37;;;;;;;5.93;5.40;;;;;;;;;;5035281;23;20235;-73
2023/09/09 01:11:09;;;;;;;6.25;5.68;;;;;;;;;;5033520;28;20223;-74
2023/09/09 01:13:39;;;;;;;5.13;4.72;;;;;;;;;;5042607;28;20219;-74
2023/09/09 01:16:05;;;;;;;5.28;4.85;;;;;;;;;;5042018;28;20222;-75
2023/09/09 01:18:34;;;;;;;5.45;4.95;;;;;;;;;;5025808;28;20246;-74
2023/09/09 01:21:06;;;;;;;5.25;4.75;;;;;;;;;;5045742;28;20680;-74
2023/09/09 01:23:31;;;;;;;5.30;4.90;;;;;;;;;;5028837;28;20284;-73
2023/09/09 01:25:59;;;;;;;5.38;4.88;;;;;;;;;;5055354;28;20211;-74
2023/09/09 01:28:28;;;;;;;5.05;4.65;;;;;;;;;;5026816;28;20212;-74
2023/09/09 01:30:53;;;;;;;6.07;4.93;;;;;;;;;;5031982;28;20211;-74
2023/09/09 01:33:22;;;;;;;5.57;5.07;;;;;;;;;;5027973;28;20222;-74
2023/09/09 01:35:50;;;;;;;5.45;4.70;;;;;;;;;;5059307;28;20211;-74
2023/09/09 01:38:19;;;;;;;5.55;5.13;;;;;;;;;;5032899;28;20333;-73
2023/09/09 01:40:44;;;;;;;5.53;5.03;;;;;;;;;;5015947;28;20229;-74
2023/09/09 01:43:14;;;;;;;5.47;4.97;;;;;;;;;;5033141;28;20218;-74
2023/09/09 01:45:40;;;;;;;5.88;5.32;;;;;;;;;;5034323;28;20218;-74
2023/09/09 01:48:10;;;;;;;5.55;5.05;;;;;;;;;;5032645;28;20222;-74
2023/09/09 01:50:38;;;;;;;6.28;5.70;;;;;;;;;;5009479;28;20219;-74
2023/09/09 01:53:04;;;;;;;5.97;5.47;;;;;;;;;;5025392;28;20253;-74
2023/09/09 01:55:32;;;;;;;6.07;5.63;;;;;;;;;;5060887;28;20227;-74
2023/09/09 01:58:00;;;;;;;6.22;5.63;;;;;;;;;;5032806;28;20822;-74
2023/09/09 02:00:27;;;;;;;6.15;5.63;;;;;;;;;;5042427;28;20298;-73
2023/09/09 02:02:54;;;;;;;6.95;5.40;;;;;;;;;;5046371;28;20734;-74
2023/09/09 02:05:20;;;;;;;5.75;5.35;;;;;;;;;;5040937;28;20226;-74
2023/09/09 02:07:45;;;;;;;5.50;5.10;;;;;;;;;;5049410;28;20210;-74
2023/09/09 02:10:18;;;;;;;5.53;5.05;;;;;;;;;;5061239;28;20219;-74
2023/09/09 02:12:49;;;;;;;6.53;5.57;;;;;;;;;;5054720;28;20242;-74
2023/09/09 02:15:14;;;;;;;6.07;5.50;;;;;;;;;;5046468;28;20231;-74
2023/09/09 02:17:40;;;;;;;5.88;5.38;;;;;;;;;;5058768;28;20215;-74
2023/09/09 02:20:06;;;;;;;6.15;5.65;;;;;;;;;;5041531;28;20219;-74
2023/09/09 02:22:32;;;;;;;6.03;5.43;;;;;;;;;;5055719;28;20231;-74
2023/09/09 02:25:02;;;;;;;6.90;6.20;;;;;;;;;;5021531;28;20230;-74
2023/09/09 02:27:28;;;;;;;6.25;5.75;;;;;;;;;;5021526;28;20698;-73
2023/09/09 02:29:55;;;;;;;6.18;5.57;;;;;;;;;;5026120;28;20223;-74
2023/09/09 02:32:23;;;;;;;6.22;5.72;;;;;;;;;;5025772;28;20738;-74
2023/09/09 02:34:50;;;;;;;7.68;5.70;;;;;;;;;;5055852;28;20504;-74
2023/09/09 02:37:21;;;;;;;6.07;5.68;;;;;;;;;;5030279;28;20299;-74
2023/09/09 02:39:49;;;;;;;5.82;5.40;;;;;;;;;;5042465;28;20234;-74
2023/09/09 02:42:22;;;;;;;5.53;5.00;;;;;;;;;;5046811;28;20310;-74
2023/09/09 02:44:52;;;;;;;5.63;5.18;;;;;;;;;;5026017;28;20756;-74
2023/09/09 02:47:20;;;;;;;6.07;5.45;;;;;;;;;;5031571;28;20632;-73
2023/09/09 02:49:50;;;;;;;5.82;5.32;;;;;;;;;;5011397;28;20265;-74
2023/09/09 02:52:18;;;;;;;6.22;5.82;;;;;;;;;;5024177;28;20219;-74
2023/09/09 02:54:46;;;;;;;5.50;5.10;;;;;;;;;;5047612;28;20619;-74
2023/09/09 02:57:16;;;;;;;6.57;5.95;;;;;;;;;;5047711;28;20214;-74
2023/09/09 02:59:44;;;;;;;6.68;5.97;;;;;;;;;;5022608;28;20223;-74
2023/09/09 03:02:12;;;;;;;6.45;5.93;;;;;;;;;;5032338;28;20231;-74
2023/09/09 03:04:40;;;;;;;6.90;6.18;;;;;;;;;;5010850;28;20364;-74
2023/09/09 03:07:08;;;;;;;6.28;5.68;;;;;;;;;;5021899;28;20710;-73
2023/09/09 03:09:36;;;;;;;6.85;5.85;;;;;;;;;;5010236;28;20247;-74
2023/09/09 03:12:02;;;;;;;7.72;5.25;;;;;;;;;;5008044;28;20219;-74
2023/09/09 03:14:33;;;;;;;5.68;5.28;;;;;;;;;;5031728;28;20783;-74
2023/09/09 03:17:01;;;;;;;5.95;5.15;;;;;;;;;;5015138;28;20223;-74
2023/09/09 03:19:30;;;;;;;7.05;6.35;;;;;;;;;;5015639;28;20223;-74
2023/09/09 03:21:57;;;;;;;6.75;5.50;;;;;;;;;;5033131;28;20307;-74
2023/09/09 03:24:22;;;;;;;7.45;5.63;;;;;;;;;;5004310;28;20226;-74
2023/09/09 03:26:48;;;;;;;6.10;5.60;;;;;;;;;;5016897;28;20223;-74
2023/09/09 03:29:16;;;;;;;5.97;5.50;;;;;;;;;;5019338;28;20202;-74
2023/09/09 03:31:42;;;;;;;5.95;5.50;;;;;;;;;;5029495;28;20521;-74
2023/09/09 03:34:07;;;;;;;6.22;5.82;;;;;;;;;;5028781;28;20222;-75
2023/09/09 03:36:35;;;;;;;5.72;5.25;;;;;;;;;;5048624;28;20223;-74
2023/09/09 03:39:03;;;;;;;6.32;5.82;;;;;;;;;;5023264;28;20576;-74
2023/09/09 03:41:31;;;;;;;6.28;5.43;;;;;;;;;;5047810;28;20231;-73
2023/09/09 03:43:57;;;;;;;5.30;4.90;;;;;;;;;;5008798;28;20227;-75
2023/09/09 03:46:24;;;;;;;5.55;5.13;;;;;;;;;;5025406;28;20238;-74
2023/09/09 03:48:55;;;;;;;6.57;5.80;;;;;;;;;;5013967;28;20245;-74
2023/09/09 03:51:21;;;;;;;9.27;5.55;;;;;;;;;;5050432;28;20297;-74
2023/09/09 03:53:49;;;;;;;6.22;5.63;;;;;;;;;;5011369;28;20680;-74
2023/09/09 03:56:18;;;;;;;6.20;5.63;;;;;;;;;;5033740;28;20223;-75
2023/09/09 03:58:44;;;;;;;6.35;5.60;;;;;;;;;;5050951;28;20222;-74
2023/09/09 04:04:59;;;;;;;7.47;5.60;;;;;;;;;;5058955;28;20281;-75
2023/09/09 04:07:27;;;;;;;6.13;5.72;;;;;;;;;;5029115;28;20578;-74
2023/09/09 04:09:53;;;;;;;6.88;6.38;;;;;;;;;;5061542;28;20217;-74
2023/09/09 04:12:22;;;;;;;9.00;6.53;;;;;;;;;;5027613;28;20215;-74
2023/09/09 04:14:52;;;;;;;6.57;6.07;;;;;;;;;;5034206;28;20218;-74
2023/09/09 04:17:20;;;;;;;7.32;6.63;;;;;;;;;;5034262;28;20222;-74
2023/09/09 04:19:51;;;;;;;9.93;6.50;;;;;;;;;;5052649;28;20249;-73
2023/09/09 04:22:19;;;;;;;6.20;5.63;;;;;;;;;;5026364;28;20223;-74
2023/09/09 04:24:48;;;;;;;5.82;5.32;;;;;;;;;;5035722;28;20217;-74
2023/09/09 04:27:13;;;;;;;6.40;5.80;;;;;;;;;;5038518;28;20261;-74
2023/09/09 04:29:41;;;;;;;10.32;6.40;;;;;;;;;;5045489;28;20516;-74
2023/09/09 04:32:10;;;;;;;5.88;5.38;;;;;;;;;;5032944;28;20219;-74
2023/09/09 04:34:36;;;;;;;6.47;5.97;;;;;;;;;;5029453;28;20701;-74
2023/09/09 04:37:03;;;;;;;6.43;5.93;;;;;;;;;;5012799;28;20219;-73
2023/09/09 04:39:33;;;;;;;7.10;6.47;;;;;;;;;;5050269;28;20684;-74
2023/09/09 04:42:01;;;;;;;8.43;6.38;;;;;;;;;;5028272;28;20228;-74
2023/09/09 04:44:29;;;;;;;6.57;6.05;;;;;;;;;;5028955;28;20215;-74
2023/09/09 04:46:54;;;;;;;6.57;6.07;;;;;;;;;;5041459;28;20220;-74
2023/09/09 04:49:23;;;;;;;7.10;6.50;;;;;;;;;;5052609;28;20215;-74
2023/09/09 04:51:54;;;;;;;6.55;6.05;;;;;;;;;;5033873;28;20249;-74
2023/09/09 04:54:24;;;;;;;6.47;5.88;;;;;;;;;;5043143;28;20277;-73
2023/09/09 04:56:52;;;;;;;7.15;6.55;;;;;;;;;;5029295;28;20223;-74
2023/09/09 04:59:20;;;;;;;6.82;6.18;;;;;;;;;;5034383;28;20277;-74
2023/09/09 05:01:51;;;;;;;9.20;6.10;;;;;;;;;;5033567;28;20222;-74
2023/09/09 05:04:19;;;;;;;6.90;6.38;;;;;;;;;;5033236;28;20290;-74
2023/09/09 05:06:44;;;;;;;7.32;6.70;;;;;;;;;;5050849;28;20710;-75
2023/09/09 05:09:12;;;;;;;7.60;6.93;;;;;;;;;;5028566;28;20254;-74
2023/09/09 05:11:43;;;;;;;7.63;6.93;;;;;;;;;;5034545;28;20227;-74
2023/09/09 05:14:11;;;;;;;7.20;6.60;;;;;;;;;;5049851;28;20568;-74
2023/09/09 05:16:37;;;;;;;6.93;6.32;;;;;;;;;;5022202;28;20700;-74
2023/09/09 05:19:08;;;;;;;7.22;6.63;;;;;;;;;;5027673;28;20240;-74
2023/09/09 05:21:33;;;;;;;7.25;6.57;;;;;;;;;;5034000;28;20226;-74
2023/09/09 05:24:02;;;;;;;6.85;6.22;;;;;;;;;;5025813;28;20656;-74
2023/09/09 05:26:32;;;;;;;6.63;6.13;;;;;;;;;;5043566;28;20563;-73
2023/09/09 05:29:03;;;;;;;6.38;5.88;;;;;;;;;;5046264;28;20219;-74
2023/09/09 05:31:29;;;;;;;6.30;5.90;;;;;;;;;;5043870;28;20227;-74
2023/09/09 05:33:54;;;;;;;7.35;6.65;;;;;;;;;;5026265;28;20588;-74
2023/09/09 05:36:20;;;;;;;7.22;6.57;;;;;;;;;;5025421;28;20227;-74
2023/09/09 05:38:46;;;;;;;7.88;6.65;;;;;;;;;;5020355;28;20235;-74
2023/09/09 05:41:11;;;;;;;6.88;6.28;;;;;;;;;;5024426;28;20579;-74
2023/09/09 05:43:37;;;;;;;6.20;5.70;;;;;;;;;;5046431;28;20215;-74
2023/09/09 05:46:05;;;;;;;7.18;6.47;;;;;;;;;;5028416;28;20222;-75
2023/09/09 05:48:31;;;;;;;6.85;6.32;;;;;;;;;;5059205;28;20214;-75
2023/09/09 05:50:59;;;;;;;7.50;6.85;;;;;;;;;;5026101;28;20226;-72
2023/09/09 05:53:26;;;;;;;6.95;6.35;;;;;;;;;;5028494;28;20250;-73
2023/09/09 05:55:56;;;;;;;7.30;6.50;;;;;;;;;;5041335;28;20239;-73
2023/09/09 05:58:22;;;;;;;7.22;6.53;;;;;;;;;;5032418;28;20211;-74
2023/09/09 06:00:47;;;;;;;7.30;6.47;;;;;;;;;;5040788;28;20250;-73
2023/09/09 06:03:18;;;;;;;8.25;7.43;;;;;;;;;;5056667;28;20222;-77
2023/09/09 06:05:45;;;;;;;6.97;6.43;;;;;;;;;;5041817;28;20215;-75
2023/09/09 06:08:12;;;;;;;7.32;6.72;;;;;;;;;;5019958;28;20495;-74
2023/09/09 06:10:40;;;;;;;11.23;7.20;;;;;;;;;;5024794;28;20207;-74
2023/09/09 06:13:12;;;;;;;8.23;7.13;;;;;;;;;;5024607;28;20222;-75
2023/09/09 06:15:40;;;;;;;7.47;6.82;;;;;;;;;;5027216;28;20265;-74
2023/09/09 06:18:13;;;;;;;8.40;6.57;;;;;;;;;;5040309;28;20238;-74
2023/09/09 06:20:38;;;;;;;6.88;6.28;;;;;;;;;;5027001;28;20226;-74
2023/09/09 06:23:04;;;;;;;7.38;6.28;;;;;;;;;;5029492;28;20684;-75
2023/09/09 06:25:34;;;;;;;7.18;6.47;;;;;;;;;;5047874;28;20207;-74
2023/09/09 06:28:02;;;;;;;7.20;5.93;;;;;;;;;;5047459;28;20232;-74
2023/09/09 06:30:31;;;;;;;8.98;5.50;;;;;;;;;;5047023;28;20228;-76
2023/09/09 06:33:00;;;;;;;11.07;7.10;;;;;;;;;;5047207;28;20227;-74
2023/09/09 06:35:26;;;;;;;6.20;5.72;;;;;;;;;;5055520;28;20219;-75
2023/09/09 06:37:57;;;;;;;7.78;6.97;;;;;;;;;;5038691;28;20673;-75
2023/09/09 06:40:24;;;;;;;6.07;5.57;;;;;;;;;;5030512;28;23283;-74
2023/09/09 06:42:53;;;;;;;7.50;6.50;;;;;;;;;;5055651;28;20216;-73
2023/09/09 06:45:20;;;;;;;6.50;5.70;;;;;;;;;;5032047;28;20684;-74
2023/09/09 06:47:50;;;;;;;7.97;5.50;;;;;;;;;;5014998;28;20211;-74
2023/09/09 06:50:17;;;;;;;6.30;5.80;;;;;;;;;;5035190;28;20224;-75
2023/09/09 06:52:43;;;;;;;7.28;5.90;;;;;;;;;;5059466;28;20650;-74
2023/09/09 06:55:13;;;;;;;6.68;5.90;;;;;;;;;;5054589;28;20700;-74
2023/09/09 06:57:38;;;;;;;5.68;5.18;;;;;;;;;;5038570;28;20214;-75
2023/09/09 07:00:05;;;;;;;6.57;5.97;;;;;;;;;;5038364;28;20227;-74
2023/09/09 07:02:39;;;;;;;7.00;5.75;;;;;;;;;;5049189;28;20796;-75
2023/09/09 07:05:07;;;;;;;5.80;5.20;;;;;;;;;;5030621;28;20218;-74
2023/09/09 07:07:33;;;;;;;6.60;5.25;;;;;;;;;;5014986;28;20191;-75
2023/09/09 07:09:58;;;;;;;7.05;5.57;;;;;;;;;;5040056;28;21092;-75
2023/09/09 07:12:24;;;;;;;5.95;4.88;;;;;;;;;;5029180;28;20251;-75
2023/09/09 07:14:49;;;;;;;5.85;5.25;;;;;;;;;;5062817;28;20211;-75
2023/09/09 07:17:19;;;;;;;5.82;5.30;;;;;;;;;;5027376;28;20223;-75
2023/09/09 07:19:49;;;;;;;7.30;5.57;;;;;;;;;;5038368;28;20216;-75
2023/09/09 07:22:17;;;;;;;6.63;6.03;;;;;;;;;;5054316;28;20232;-75
2023/09/09 07:24:43;;;;;;;8.52;5.35;;;;;;;;;;5010235;28;20243;-75
2023/09/09 07:27:08;;;;;;;7.25;5.63;;;;;;;;;;5059854;28;20217;-76
2023/09/09 07:29:36;;;;;;;5.63;5.13;;;;;;;;;;5027438;28;20295;-76
2023/09/09 07:32:02;;;;;;;5.53;5.13;;;;;;;;;;5048966;28;20889;-76
2023/09/09 07:34:34;;;;;;;5.63;5.22;;;;;;;;;;5012463;28;20237;-76
2023/09/09 07:37:02;;;;;;;8.18;5.05;;;;;;;;;;5060976;28;20218;-76
2023/09/09 07:39:27;;;;;;;4.88;4.47;;;;;;;;;;5043999;28;20237;-76
2023/09/09 07:41:53;;;;;;;5.47;4.85;;;;;;;;;;5025848;28;20223;-75
2023/09/09 07:44:24;;;;;;;6.25;5.35;;;;;;;;;;5042726;28;20215;-76
2023/09/09 07:46:52;;;;;;;5.63;4.90;;;;;;;;;;5018350;28;20211;-75
2023/09/09 07:49:21;;;;;;;5.70;4.82;;;;;;;;;;5027797;28;20582;-75
2023/09/09 07:51:51;;;;;;;5.25;4.78;;;;;;;;;;5057466;28;20298;-76
2023/09/09 07:54:17;;;;;;;6.85;5.10;;;;;;;;;;5045735;28;20900;-76
2023/09/09 07:56:50;;;;;;;5.10;4.70;;;;;;;;;;5067582;28;20211;-76
2023/09/09 07:59:15;;;;;;;6.15;4.43;;;;;;;;;;5051475;28;20380;-76
2023/09/09 08:01:44;;;;;;;5.35;4.85;;;;;;;;;;5046466;28;20255;-76
2023/09/09 08:04:12;;;;;;;9.38;5.32;;;;;;;;;;5059002;28;20596;-76
2023/09/09 08:06:40;;;;;;;6.55;4.13;;;;;;;;;;5063252;28;20216;-76
2023/09/09 08:09:07;;;;;;;4.95;4.55;;;;;;;;;;5042959;28;20218;-76
2023/09/09 08:11:37;;;;;;;4.45;4.15;;;;;;;;;;5023684;28;20234;-77
2023/09/09 08:14:07;;;;;;;4.70;4.30;;;;;;;;;;5033658;28;20585;-76
2023/09/09 08:16:33;;;;;;;6.32;4.82;;;;;;;;;;5049533;28;20207;-77
2023/09/09 08:19:01;;;;;;;7.07;4.68;;;;;;;;;;5040974;28;20215;-77
2023/09/09 08:21:28;;;;;;;8.10;4.50;;;;;;;;;;5059565;28;20257;-77
2023/09/09 08:24:01;;;;;;;7.55;4.85;;;;;;;;;;5041714;28;20204;-77
2023/09/09 08:26:29;;;;;;;5.20;4.70;;;;;;;;;;5048577;28;20215;-77
2023/09/09 08:28:55;;;;;;;5.75;4.68;;;;;;;;;;5043647;28;20673;-77
2023/09/09 08:31:21;;;;;;;7.18;4.47;;;;;;;;;;5049556;28;20635;-77
2023/09/09 08:33:46;;;;;;;5.60;4.40;;;;;;;;;;5042734;28;20224;-76
2023/09/09 08:36:12;;;;;;;4.50;4.10;;;;;;;;;;5048036;28;20264;-77
2023/09/09 08:38:38;;;;;;;6.65;4.13;;;;;;;;;;5033246;28;20207;-76
2023/09/09 08:41:35;;;;;;;6.15;4.40;;;;;;;;;;5058820;28;20222;-76
2023/09/09 08:44:08;;;;;;;5.15;4.15;;;;;;;;;;5036206;28;20734;-77
2023/09/09 08:46:36;;;;;;;4.55;4.15;;;;;;;;;;5066737;28;20258;-77
2023/09/09 08:49:04;;;;;;;10.48;4.53;;;;;;;;;;5026785;28;20218;-77
2023/09/09 08:52:05;;;;;;;5.63;4.50;;;;;;;;;;5032985;28;20230;-78
2023/09/09 08:54:31;;;;;;;4.63;4.05;;;;;;;;;;5055171;28;20223;-78
2023/09/09 08:57:00;;;;;;;4.18;3.88;;;;;;;;;;5039255;28;20207;-78
2023/09/09 08:59:28;;;;;;;4.30;3.90;;;;;;;;;;5032117;28;20366;-78
2023/09/09 09:01:56;;;;;;;4.60;4.20;;;;;;;;;;5031156;28;20230;-77
2023/09/09 09:04:26;;;;;;;4.50;4.10;;;;;;;;;;5032501;28;20215;-78
2023/09/09 09:06:53;;;;;;;5.03;4.63;;;;;;;;;;5064859;28;20277;-78
2023/09/09 09:09:19;;;;;;;5.55;4.10;;;;;;;;;;5060461;28;20219;-78
2023/09/09 09:11:45;;;;;;;4.90;4.28;;;;;;;;;;5043832;28;20944;-77
2023/09/09 09:14:10;;;;;;;4.35;4.03;;;;;;;;;;5062588;28;20218;-78
2023/09/09 09:16:44;;;;;;;4.40;3.97;;;;;;;;;;5043843;28;20320;-77
2023/09/09 09:19:21;;;;;;;5.72;4.10;;;;;;;;;;5033966;28;20223;-77
2023/09/09 09:21:51;;;;;;;4.07;3.70;;;;;;;;;;5034527;28;20225;-77
2023/09/09 09:24:27;;;;;;;4.18;3.78;;;;;;;;;;5027351;28;20227;-75
2023/09/09 09:26:55;;;;;;;4.25;3.85;;;;;;;;;;5046488;28;20207;-77
2023/09/09 09:29:23;;;;;;;4.00;3.38;;;;;;;;;;5047342;28;20582;-78
2023/09/09 09:31:56;;;;;;;4.32;3.92;;;;;;;;;;5056650;28;20226;-78
2023/09/09 09:34:34;;;;;;;5.05;3.92;;;;;;;;;;5024879;28;20220;-77
2023/09/09 09:37:09;;;;;;;6.88;4.10;;;;;;;;;;5042129;28;20219;-77
2023/09/09 09:39:35;;;;;;;4.38;3.78;;;;;;;;;;5058468;28;20289;-76
2023/09/09 09:42:04;;;;;;;4.30;3.63;;;;;;;;;;5026712;28;20218;-76
2023/09/09 09:44:35;;;;;;;3.75;3.45;;;;;;;;;;5045313;28;20595;-76
2023/09/09 09:47:04;;;;;;;5.97;3.92;;;;;;;;;;5032118;28;20233;-77
2023/09/09 09:49:42;;;;;;;4.28;3.97;;;;;;;;;;5031545;28;20242;-76
2023/09/09 09:52:11;;;;;;;3.92;3.63;;;;;;;;;;5053063;28;20214;-76
2023/09/09 09:54:37;;;;;;;4.35;3.92;;;;;;;;;;5062690;28;20218;-77
2023/09/09 09:57:03;;;;;;;4.97;3.55;;;;;;;;;;5060517;28;20214;-76
2023/09/09 09:59:33;;;;;;;4.10;3.70;;;;;;;;;;5049649;28;20615;-76
2023/09/09 10:01:59;;;;;;;4.10;3.70;;;;;;;;;;5049490;28;20230;-76
2023/09/09 10:04:31;;;;;;;5.35;3.58;;;;;;;;;;5022015;28;20207;-77
2023/09/09 10:06:57;;;;;;;4.05;3.65;;;;;;;;;;5023929;28;20216;-77
2023/09/09 10:09:47;;;;;;;3.63;3.40;;;;;;;;;;5046961;28;20735;-76
2023/09/09 10:12:28;;;;;;;4.05;3.65;;;;;;;;;;5038944;28;20657;-77
2023/09/09 10:14:53;;;;;;;4.53;3.35;;;;;;;;;;5047172;28;20277;-76
2023/09/09 10:17:24;;;;;;;4.65;3.35;;;;;;;;;;5026393;28;20210;-76
2023/09/09 10:19:53;;;;;;;3.53;3.22;;;;;;;;;;5058696;28;20253;-78
2023/09/09 10:22:19;;;;;;;3.65;3.35;;;;;;;;;;5049570;28;20368;-77
2023/09/09 10:24:46;;;;;;;5.10;3.55;;;;;;;;;;5047993;28;20210;-76
2023/09/09 10:27:19;;;;;;;3.45;3.15;;;;;;;;;;5041841;28;20211;-77
2023/09/09 10:29:47;;;;;;;3.92;3.55;;;;;;;;;;5058079;28;20700;-77
2023/09/09 10:32:13;;;;;;;3.60;3.25;;;;;;;;;;5046354;28;20246;-77
2023/09/09 10:34:43;;;;;;;3.72;3.33;;;;;;;;;;5031563;28;20237;-76
2023/09/09 10:37:09;;;;;;;3.78;3.40;;;;;;;;;;5023119;28;20703;-76
2023/09/09 10:39:34;;;;;;;3.75;3.30;;;;;;;;;;5045206;28;20240;-77
2023/09/09 10:42:03;;;;;;;4.18;3.30;;;;;;;;;;5056378;28;20815;-77
2023/09/09 10:44:30;;;;;;;3.92;3.63;;;;;;;;;;5040792;28;20242;-77
2023/09/09 10:47:00;;;;;;;3.88;3.17;;;;;;;;;;5026422;28;20222;-78
2023/09/09 10:49:27;;;;;;;3.58;3.28;;;;;;;;;;5060359;28;20211;-77
2023/09/09 10:52:00;;;;;;;3.55;3.22;;;;;;;;;;5046672;28;20229;-78
2023/09/09 10:54:26;;;;;;;3.45;3.15;;;;;;;;;;5049484;28;20712;-78
2023/09/09 10:57:02;;;;;;;3.97;3.58;;;;;;;;;;5069642;28;20700;-78
2023/09/09 10:59:29;;;;;;;3.90;3.50;;;;;;;;;;5060489;28;20227;-77
2023/09/09 11:02:19;;;;;;;4.53;3.80;;;;;;;;;;5063230;28;20219;-77
2023/09/09 11:05:00;;;;;;;4.25;3.28;;;;;;;;;;5047795;28;20714;-75
2023/09/09 11:07:38;;;;;;;3.65;3.28;;;;;;;;;;5049844;28;20227;-77
2023/09/09 11:10:04;;;;;;;3.40;3.10;;;;;;;;;;5063033;28;20630;-77
2023/09/09 11:12:30;;;;;;;3.70;3.28;;;;;;;;;;5034349;28;20222;-75
2023/09/09 11:15:08;;;;;;;4.75;3.40;;;;;;;;;;5050631;28;20230;-76
2023/09/09 11:17:36;;;;;;;3.63;3.33;;;;;;;;;;5046958;28;20297;-77
2023/09/09 11:20:07;;;;;;;5.80;3.35;;;;;;;;;;5063199;28;20215;-76
2023/09/09 11:22:37;;;;;;;4.43;3.20;;;;;;;;;;5044647;28;20631;-77
2023/09/09 11:25:06;;;;;;;3.80;3.30;;;;;;;;;;5047524;28;20623;-76
2023/09/09 11:27:39;;;;;;;3.55;2.83;;;;;;;;;;5067229;28;20249;-77
2023/09/09 11:30:07;;;;;;;3.42;2.90;;;;;;;;;;5044532;28;20353;-77
2023/09/09 11:32:40;;;;;;;5.78;3.15;;;;;;;;;;5019591;28;20214;-78
2023/09/09 11:35:11;;;;;;;4.28;3.40;;;;;;;;;;5057785;28;20700;-78
2023/09/09 11:37:39;;;;;;;3.97;3.35;;;;;;;;;;5058535;28;20721;-77
2023/09/09 11:40:09;;;;;;;4.57;3.33;;;;;;;;;;5030935;28;20223;-77
2023/09/09 11:42:37;;;;;;;4.03;3.40;;;;;;;;;;5028615;28;20612;-78
2023/09/09 11:45:18;;;;;;;5.22;3.40;;;;;;;;;;5035049;28;20211;-77
2023/09/09 11:47:47;;;;;;;4.60;3.28;;;;;;;;;;5036081;28;20221;-78
2023/09/09 11:50:16;;;;;;;3.80;3.33;;;;;;;;;;5029910;28;20910;-77
2023/09/09 11:52:41;;;;;;;4.10;3.50;;;;;;;;;;5022218;28;20220;-77
2023/09/09 11:55:07;;;;;;;3.97;3.10;;;;;;;;;;5031878;28;20214;-77
2023/09/09 11:57:53;;;;;;;3.53;3.22;;;;;;;;;;5022153;28;20219;-77
2023/09/09 12:00:22;;;;;;;3.40;3.10;;;;;;;;;;5053358;28;20211;-77
2023/09/09 12:02:50;;;;;;;3.75;3.45;;;;;;;;;;5050069;28;20219;-76
2023/09/09 12:05:17;;;;;;;3.92;3.22;;;;;;;;;;5063464;28;20218;-77
2023/09/09 12:07:45;;;;;;;4.20;3.35;;;;;;;;;;5048370;28;20218;-77
2023/09/09 12:10:14;;;;;;;4.03;3.60;;;;;;;;;;5050143;28;20600;-77
2023/09/09 12:12:41;;;;;;;3.53;3.22;;;;;;;;;;5032610;28;20524;-78
2023/09/09 12:15:09;;;;;;;3.83;3.05;;;;;;;;;;5043871;28;20216;-77
2023/09/09 12:17:38;;;;;;;4.10;3.00;;;;;;;;;;5034380;28;20302;-76
2023/09/09 12:20:13;;;;;;;3.30;3.00;;;;;;;;;;5059697;28;20235;-78
2023/09/09 12:22:47;;;;;;;3.75;2.83;;;;;;;;;;5034390;28;20256;-77
2023/09/09 12:25:35;;;;;;;3.20;2.97;;;;;;;;;;5019337;28;20229;-76
2023/09/09 12:28:02;;;;;;;2.97;2.78;;;;;;;;;;5047931;28;20211;-76
2023/09/09 12:30:41;;;;;;;3.95;3.25;;;;;;;;;;5055300;28;20599;-76
2023/09/09 12:33:11;;;;;;;3.50;3.20;;;;;;;;;;5051540;28;20222;-75
2023/09/09 12:35:42;;;;;;;3.50;3.20;;;;;;;;;;5065499;28;20711;-79
2023/09/09 12:38:08;;;;;;;3.38;3.08;;;;;;;;;;5051237;28;20571;-77
2023/09/09 12:40:56;;;;;;;3.70;3.40;;;;;;;;;;5041180;28;20234;-77
2023/09/09 12:43:25;;;;;;;3.33;2.88;;;;;;;;;;5040074;28;20219;-77
2023/09/09 12:45:52;;;;;;;3.75;3.45;;;;;;;;;;5041985;28;20219;-78
2023/09/09 12:48:20;;;;;;;3.20;3.00;;;;;;;;;;5054865;28;20645;-78
2023/09/09 12:50:49;;;;;;;3.55;3.25;;;;;;;;;;5011602;28;20694;-76
2023/09/09 12:53:16;;;;;;;4.22;3.28;;;;;;;;;;5058251;28;20250;-77
2023/09/09 12:55:46;;;;;;;3.35;3.05;;;;;;;;;;5044027;28;20230;-77
2023/09/09 12:58:14;;;;;;;3.70;3.45;;;;;;;;;;5044298;28;20216;-76
2023/09/09 13:00:46;;;;;;;3.67;3.17;;;;;;;;;;5045562;28;20222;-79
2023/09/09 13:03:14;;;;;;;4.82;3.45;;;;;;;;;;5033532;28;20247;-76
2023/09/09 13:05:42;;;;;;;4.28;3.40;;;;;;;;;;5048355;28;20294;-75
2023/09/09 13:08:10;;;;;;;4.20;3.22;;;;;;;;;;5059266;28;20220;-76
2023/09/09 13:10:35;;;;;;;4.38;3.30;;;;;;;;;;5059843;28;20210;-75
2023/09/09 13:13:01;;;;;;;3.85;3.53;;;;;;;;;;5030549;28;20277;-76
2023/09/09 13:15:29;;;;;;;4.68;3.15;;;;;;;;;;5041015;28;20570;-76
2023/09/09 13:17:54;;;;;;;3.90;2.75;;;;;;;;;;5031303;28;20302;-76
2023/09/09 13:20:22;;;;;;;4.07;3.33;;;;;;;;;;5036521;28;20261;-76
2023/09/09 13:22:50;;;;;;;5.20;3.40;;;;;;;;;;5044168;28;20223;-76
2023/09/09 13:25:20;;;;;;;2.97;2.70;;;;;;;;;;5041611;28;20240;-77
2023/09/09 13:27:46;;;;;;;3.83;3.30;;;;;;;;;;5032997;28;20285;-78
2023/09/09 13:30:14;;;;;;;3.47;3.17;;;;;;;;;;5057443;28;20270;-76
2023/09/09 13:32:42;;;;;;;3.40;3.08;;;;;;;;;;5050414;28;20219;-77
2023/09/09 13:35:14;;;;;;;6.20;3.10;;;;;;;;;;5040768;28;20208;-76
2023/09/09 13:37:44;;;;;;;3.30;3.00;;;;;;;;;;5042227;28;20230;-75
2023/09/09 13:40:13;;;;;;;5.38;3.33;;;;;;;;;;5042622;28;20250;-75
2023/09/09 13:42:40;;;;;;;3.42;3.13;;;;;;;;;;5055917;28;20740;-76
2023/09/09 13:45:14;;;;;;;2.80;2.60;;;;;;;;;;5043757;28;20214;-76
2023/09/09 13:47:42;;;;;;;3.33;3.03;;;;;;;;;;5027077;28;20726;-77
2023/09/09 13:50:12;;;;;;;3.47;3.10;;;;;;;;;;5057108;28;20696;-76
2023/09/09 13:52:40;;;;;;;3.95;3.50;;;;;;;;;;5043928;28;20226;-76
2023/09/09 13:55:10;;;;;;;4.78;3.20;;;;;;;;;;5041311;28;20306;-77
2023/09/09 13:57:38;;;;;;;3.88;3.35;;;;;;;;;;5040582;28;20663;-77
2023/09/09 14:00:07;;;;;;;3.28;2.97;;;;;;;;;;5048605;28;20227;-77
2023/09/09 14:02:35;;;;;;;3.40;3.10;;;;;;;;;;5018741;28;20321;-76
2023/09/09 14:05:03;;;;;;;4.10;3.10;;;;;;;;;;5022349;28;20207;-76
2023/09/09 14:07:31;;;;;;;4.07;3.67;;;;;;;;;;5039483;28;21141;-76
2023/09/09 14:09:59;;;;;;;3.92;3.50;;;;;;;;;;5022506;28;20226;-75
2023/09/09 14:12:24;;;;;;;3.60;3.33;;;;;;;;;;5021485;28;20227;-76
2023/09/09 14:14:52;;;;;;;8.23;3.60;;;;;;;;;;5025474;28;20234;-75
2023/09/09 14:17:24;;;;;;;3.70;3.13;;;;;;;;;;5049014;28;20246;-76
2023/09/09 14:19:53;;;;;;;4.88;3.20;;;;;;;;;;5035512;28;20641;-76
2023/09/09 14:22:21;;;;;;;3.45;3.22;;;;;;;;;;5033584;28;20283;-76
2023/09/09 14:24:52;;;;;;;3.95;3.10;;;;;;;;;;5060767;28;20230;-77
2023/09/09 14:27:17;;;;;;;4.45;3.40;;;;;;;;;;5053143;28;20680;-76
2023/09/09 14:29:45;;;;;;;3.35;3.15;;;;;;;;;;5026124;28;20230;-76
2023/09/09 14:32:10;;;;;;;4.13;2.83;;;;;;;;;;5012894;28;20251;-76
2023/09/09 14:34:38;;;;;;;3.20;2.90;;;;;;;;;;5023395;28;20226;-76
2023/09/09 14:37:08;;;;;;;3.70;3.28;;;;;;;;;;5045461;28;20211;-76
2023/09/09 14:39:34;;;;;;;8.43;5.22;;;;;;;;;;5041130;28;20226;-76
2023/09/09 14:42:03;;;;;;;3.72;3.33;;;;;;;;;;5039656;28;20223;-78
2023/09/09 14:44:36;;;;;;;5.68;3.70;;;;;;;;;;5025630;28;20862;-77
2023/09/09 14:47:02;;;;;;;4.50;3.58;;;;;;;;;;5039527;28;20234;-76
2023/09/09 14:49:30;;;;;;;3.78;3.22;;;;;;;;;;5030238;28;20216;-78
2023/09/09 14:51:56;;;;;;;3.40;3.10;;;;;;;;;;5035869;28;20535;-76
2023/09/09 14:54:23;;;;;;;3.17;2.97;;;;;;;;;;5012062;28;20212;-77
2023/09/09 14:56:49;;;;;;;3.20;3.00;;;;;;;;;;5009623;28;20222;-77